地図

経路データ

SID SEASON NUMBER BASIN SUBBASIN NAME ISO_TIME NATURE LAT LON WMO_WIND WMO_PRES WMO_AGENCY TRACK_TYPE DIST2LAND LANDFALL IFLAG USA_AGENCY USA_ATCF_ID USA_LAT USA_LON USA_RECORD USA_STATUS USA_WIND USA_PRES USA_SSHS USA_R34_NE USA_R34_SE USA_R34_SW USA_R34_NW USA_R50_NE USA_R50_SE USA_R50_SW USA_R50_NW USA_R64_NE USA_R64_SE USA_R64_SW USA_R64_NW USA_POCI USA_ROCI USA_RMW USA_EYE TOKYO_LAT TOKYO_LON TOKYO_GRADE TOKYO_WIND TOKYO_PRES TOKYO_R50_DIR TOKYO_R50_LONG TOKYO_R50_SHORT TOKYO_R30_DIR TOKYO_R30_LONG TOKYO_R30_SHORT TOKYO_LAND CMA_LAT CMA_LON CMA_CAT CMA_WIND CMA_PRES HKO_LAT HKO_LON HKO_CAT HKO_WIND HKO_PRES NEWDELHI_LAT NEWDELHI_LON NEWDELHI_GRADE NEWDELHI_WIND NEWDELHI_PRES NEWDELHI_CI NEWDELHI_DP NEWDELHI_POCI REUNION_LAT REUNION_LON REUNION_TYPE REUNION_WIND REUNION_PRES REUNION_TNUM REUNION_CI REUNION_RMW REUNION_R34_NE REUNION_R34_SE REUNION_R34_SW REUNION_R34_NW REUNION_R50_NE REUNION_R50_SE REUNION_R50_SW REUNION_R50_NW REUNION_R64_NE REUNION_R64_SE REUNION_R64_SW REUNION_R64_NW BOM_LAT BOM_LON BOM_TYPE BOM_WIND BOM_PRES BOM_TNUM BOM_CI BOM_RMW BOM_R34_NE BOM_R34_SE BOM_R34_SW BOM_R34_NW BOM_R50_NE BOM_R50_SE BOM_R50_SW BOM_R50_NW BOM_R64_NE BOM_R64_SE BOM_R64_SW BOM_R64_NW BOM_ROCI BOM_POCI BOM_EYE BOM_POS_METHOD BOM_PRES_METHOD NADI_LAT NADI_LON NADI_CAT NADI_WIND NADI_PRES WELLINGTON_LAT WELLINGTON_LON WELLINGTON_WIND WELLINGTON_PRES DS824_LAT DS824_LON DS824_STAGE DS824_WIND DS824_PRES TD9636_LAT TD9636_LON TD9636_STAGE TD9636_WIND TD9636_PRES TD9635_LAT TD9635_LON TD9635_WIND TD9635_PRES TD9635_ROCI NEUMANN_LAT NEUMANN_LON NEUMANN_CLASS NEUMANN_WIND NEUMANN_PRES MLC_LAT MLC_LON MLC_CLASS MLC_WIND MLC_PRES USA_GUST BOM_GUST BOM_GUST_PER REUNION_GUST REUNION_GUST_PER USA_SEAHGT USA_SEARAD_NE USA_SEARAD_SE USA_SEARAD_SW USA_SEARAD_NW STORM_SPEED STORM_DIR
1970092S17165 1970 36 SP MM NOT_NAMED 1970-04-01 12:00:00 TS -17.0000 165.400 main 207 194 O________OO_O_ jtwc_sh SH281970 -17.0000 165.400 -1 -17.0000 165.400 TC -17.0000 165.400 2 -17.0000 165.400 TC 25 16 139
1970092S17165 1970 36 SP MM NOT_NAMED 1970-04-01 15:00:00 TS -17.5985 165.949 main 201 192 P________PP_P_ SH281970 -17.6028 165.949 -1 -17.6028 165.949 TC -17.5856 165.948 2 -17.6028 165.949 TC 27 16 139
1970092S17165 1970 36 SP MM NOT_NAMED 1970-04-01 18:00:00 TS -18.1941 166.499 main 208 208 O________OP_O_ jtwc_sh SH281970 -18.2000 166.500 -1 -18.2000 166.500 TC -18.1764 166.498 2 -18.2000 166.500 TC 30 16 139
1970092S17165 1970 36 SP MM NOT_NAMED 1970-04-01 21:00:00 TS -18.7890 167.050 main 249 249 P________PP_P_ SH281970 -18.7923 167.050 -1 -18.7923 167.050 TC -18.7789 167.049 2 -18.7923 167.050 TC 32 16 139
1970092S17165 1970 36 SP MM NOT_NAMED 1970-04-02 00:00:00 TS -19.4000 167.600 main 282 259 O________OO_O_ jtwc_sh SH281970 -19.4000 167.600 -1 -19.4000 167.600 TC 35 -19.4000 167.600 2 -19.4000 167.600 TC 35 16 140
1970092S17165 1970 36 SP MM NOT_NAMED 1970-04-02 03:00:00 TS -20.0426 168.151 main 266 243 P________PP_P_ SH281970 -20.0423 168.150 -1 -20.0423 168.150 TC 35 -20.0432 168.151 2 -20.0423 168.150 TC 35 17 142
1970092S17165 1970 36 SP MM NOT_NAMED 1970-04-02 06:00:00 TS -20.6998 168.700 main 243 237 O________OP_O_ jtwc_sh SH281970 -20.7000 168.700 -1 -20.7000 168.700 TC 35 -20.6993 168.701 2 -20.7000 168.700 TC 35 17 142
1970092S17165 1970 36 SP MM NOT_NAMED 1970-04-02 09:00:00 TS -21.3532 169.251 main 253 249 P________PP_P_ SH281970 -21.3498 169.250 -1 -21.3498 169.250 TC 35 -21.3557 169.251 2 -21.3573 169.250 TC 35 17 142
1970092S17165 1970 36 SP MM NOT_NAMED 1970-04-02 12:00:00 TS -22.0000 169.800 main 289 289 O________OO_O_ jtwc_sh SH281970 -22.0000 169.800 -1 -22.0000 169.800 TC 35 -22.0000 169.800 2 -22.0000 169.800 TC 35 17 142
1970092S17165 1970 36 SP MM NOT_NAMED 1970-04-02 15:00:00 TS -22.6458 170.352 main 350 350 P________PP_P_ SH281970 -22.6648 170.350 -1 -22.6648 170.350 TC 35 -22.6464 170.358 2 -22.6073 170.351 TC 35 16 141
1970092S17165 1970 36 SP MM NOT_NAMED 1970-04-02 18:00:00 TS -23.2686 170.904 main 414 414 O________OP_O_ jtwc_sh SH281970 -23.3000 170.900 -1 -23.3000 170.900 TC 35 -23.2744 170.915 2 -23.2000 170.900 TC 35 16 140
1970092S17165 1970 36 SP MM NOT_NAMED 1970-04-02 21:00:00 TS -23.8675 171.459 main 493 493 P________PP_P_ SH281970 -23.8874 171.458 -1 -23.8874 171.458 TC 35 -23.8652 171.465 2 -23.8299 171.458 TC 35 15 138
1970092S17165 1970 36 SP MM NOT_NAMED 1970-04-03 00:00:00 TS -24.4000 172.000 main 561 561 O________OO_O_ jtwc_sh SH281970 -24.4000 172.000 -1 -24.4000 172.000 TC 35 -24.4000 172.000 2 -24.4000 172.000 TC 35 14 135
1970092S17165 1970 36 SP MM NOT_NAMED 1970-04-03 03:00:00 TS -24.8338 172.513 main 626 626 P________PP_P_ SH281970 -24.8222 172.508 -1 -24.8222 172.508 TC 35 -24.8610 172.528 2 -24.8297 172.508 TC 35 12 132
1970092S17165 1970 36 SP MM NOT_NAMED 1970-04-03 06:00:00 TS -25.2167 173.010 main 690 690 O________OP_O_ jtwc_sh SH281970 -25.2000 173.000 -1 -25.2000 173.000 TC 35 -25.2668 173.040 2 -25.2000 173.000 TC 35 12 131
1970092S17165 1970 36 SP MM NOT_NAMED 1970-04-03 09:00:00 TS -25.6116 173.514 main 756 756 P________PP_P_ SH281970 -25.5999 173.508 -1 -25.5999 173.508 TC 35 -25.6392 173.531 2 -25.6074 173.508 TC 35 12 131
1970092S17165 1970 36 SP MM NOT_NAMED 1970-04-03 12:00:00 TS -26.0000 174.000 main 821 821 O________OO_O_ jtwc_sh SH281970 -26.0000 174.000 -1 -26.0000 174.000 TC 35 -26.0000 174.000 2 -26.0000 174.000 TC 35 12 132
1970092S17165 1970 36 SP MM NOT_NAMED 1970-04-03 15:00:00 TS -26.3828 174.460 main 886 886 P________PP_P_ SH281970 -26.4074 174.465 -1 -26.4074 174.465 TC 35 -26.3668 174.445 2 -26.3499 174.465 TC 32 11 134
1970092S17165 1970 36 SP MM NOT_NAMED 1970-04-03 18:00:00 TS -26.7602 174.893 main 878 851 O________OP_O_ jtwc_sh SH281970 -26.8000 174.900 -1 -26.8000 174.900 TC 35 -26.7409 174.872 2 -26.7000 174.900 TC 30 11 135
1970092S17165 1970 36 SP MM NOT_NAMED 1970-04-03 21:00:00 TS -27.1319 175.302 main 854 822 P________PP_P_ SH281970 -27.1602 175.307 -1 -27.1602 175.307 TC 35 -27.1196 175.288 2 -27.0877 175.307 TC 27 10 136
1970092S17165 1970 36 SP MM NOT_NAMED 1970-04-04 00:00:00 TS -27.5000 175.700 main 822 O________OO_O_ jtwc_sh SH281970 -27.5000 175.700 -1 -27.5000 175.700 TC 35 -27.5000 175.700 2 -27.5000 175.700 TC 25 10 136

デジタル台風データ・検索

IBTrACS Databaseについて

本データベースは、米国NOAAが公開する1842年以降の世界の熱帯低気圧のベストトラックデータアーカイブInternational Best Track Archive for Climate Stewardship (IBTrACS)を、ウェブで閲覧しやすい形式に変換したものです。

最終更新日:2021-10-25